sensor_id;sensor_type;location;lat;lon;timestamp;P1;durP1;ratioP1;P2;durP2;ratioP2
40659;SDS011;26753;45.544;9.232;2022-10-16T00:02:12;63.22;;;37.08;;
40659;SDS011;26753;45.544;9.232;2022-10-16T00:04:38;61.72;;;37.25;;
40659;SDS011;26753;45.544;9.232;2022-10-16T00:07:04;62.03;;;37.95;;
40659;SDS011;26753;45.544;9.232;2022-10-16T00:09:29;61.15;;;36.47;;
40659;SDS011;26753;45.544;9.232;2022-10-16T00:11:55;57.55;;;36.60;;
40659;SDS011;26753;45.544;9.232;2022-10-16T00:14:20;58.78;;;36.08;;
40659;SDS011;26753;45.544;9.232;2022-10-16T00:16:46;57.75;;;35.25;;
40659;SDS011;26753;45.544;9.232;2022-10-16T00:19:12;56.22;;;34.88;;
40659;SDS011;26753;45.544;9.232;2022-10-16T00:21:37;60.13;;;35.45;;
40659;SDS011;26753;45.544;9.232;2022-10-16T00:24:05;59.08;;;36.53;;
40659;SDS011;26753;45.544;9.232;2022-10-16T00:26:36;59.85;;;35.92;;
40659;SDS011;26753;45.544;9.232;2022-10-16T00:29:03;60.20;;;36.20;;
40659;SDS011;26753;45.544;9.232;2022-10-16T00:31:29;69.45;;;39.20;;
40659;SDS011;26753;45.544;9.232;2022-10-16T00:33:55;60.35;;;37.80;;
40659;SDS011;26753;45.544;9.232;2022-10-16T00:36:22;59.40;;;37.60;;
40659;SDS011;26753;45.544;9.232;2022-10-16T00:38:56;64.63;;;39.72;;
40659;SDS011;26753;45.544;9.232;2022-10-16T00:41:24;65.32;;;39.22;;
40659;SDS011;26753;45.544;9.232;2022-10-16T00:43:52;60.65;;;38.75;;
40659;SDS011;26753;45.544;9.232;2022-10-16T00:46:23;65.50;;;39.67;;
40659;SDS011;26753;45.544;9.232;2022-10-16T00:49:00;63.00;;;39.50;;
40659;SDS011;26753;45.544;9.232;2022-10-16T00:51:33;67.45;;;39.88;;
40659;SDS011;26753;45.544;9.232;2022-10-16T00:54:02;67.15;;;39.90;;
40659;SDS011;26753;45.544;9.232;2022-10-16T00:56:31;65.28;;;39.42;;
40659;SDS011;26753;45.544;9.232;2022-10-16T00:58:58;65.43;;;39.83;;
40659;SDS011;26753;45.544;9.232;2022-10-16T01:01:26;66.72;;;40.45;;
40659;SDS011;26753;45.544;9.232;2022-10-16T01:03:52;71.45;;;41.78;;
40659;SDS011;26753;45.544;9.232;2022-10-16T01:06:19;73.30;;;40.85;;
40659;SDS011;26753;45.544;9.232;2022-10-16T01:11:52;71.57;;;40.85;;
40659;SDS011;26753;45.544;9.232;2022-10-16T01:14:39;63.70;;;39.80;;
40659;SDS011;26753;45.544;9.232;2022-10-16T01:17:22;64.78;;;38.50;;
40659;SDS011;26753;45.544;9.232;2022-10-16T01:20:43;65.57;;;39.22;;
40659;SDS011;26753;45.544;9.232;2022-10-16T01:23:15;64.03;;;39.17;;
40659;SDS011;26753;45.544;9.232;2022-10-16T01:25:55;65.10;;;39.17;;
40659;SDS011;26753;45.544;9.232;2022-10-16T01:28:28;63.67;;;38.75;;
40659;SDS011;26753;45.544;9.232;2022-10-16T01:31:01;63.78;;;38.10;;
40659;SDS011;26753;45.544;9.232;2022-10-16T01:33:42;63.92;;;38.63;;
40659;SDS011;26753;45.544;9.232;2022-10-16T01:36:12;60.60;;;37.58;;
40659;SDS011;26753;45.544;9.232;2022-10-16T01:38:40;64.57;;;39.55;;
40659;SDS011;26753;45.544;9.232;2022-10-16T01:41:13;63.53;;;39.47;;
40659;SDS011;26753;45.544;9.232;2022-10-16T01:43:52;64.28;;;39.05;;
40659;SDS011;26753;45.544;9.232;2022-10-16T01:46:26;65.03;;;40.08;;
40659;SDS011;26753;45.544;9.232;2022-10-16T01:48:55;68.03;;;40.47;;
40659;SDS011;26753;45.544;9.232;2022-10-16T01:51:21;65.80;;;40.75;;
40659;SDS011;26753;45.544;9.232;2022-10-16T01:53:53;65.93;;;39.92;;
40659;SDS011;26753;45.544;9.232;2022-10-16T01:56:20;68.53;;;39.53;;
40659;SDS011;26753;45.544;9.232;2022-10-16T01:58:52;64.78;;;39.38;;
40659;SDS011;26753;45.544;9.232;2022-10-16T02:01:21;69.53;;;40.05;;
40659;SDS011;26753;45.544;9.232;2022-10-16T02:03:50;64.43;;;38.75;;
40659;SDS011;26753;45.544;9.232;2022-10-16T02:06:18;64.03;;;37.33;;
40659;SDS011;26753;45.544;9.232;2022-10-16T02:08:45;66.43;;;38.22;;
40659;SDS011;26753;45.544;9.232;2022-10-16T02:11:11;59.20;;;36.67;;
40659;SDS011;26753;45.544;9.232;2022-10-16T02:13:37;64.35;;;38.05;;
40659;SDS011;26753;45.544;9.232;2022-10-16T02:16:04;55.38;;;35.75;;
40659;SDS011;26753;45.544;9.232;2022-10-16T02:18:30;53.75;;;35.17;;
40659;SDS011;26753;45.544;9.232;2022-10-16T02:21:05;55.63;;;34.22;;
40659;SDS011;26753;45.544;9.232;2022-10-16T02:29:56;60.70;;;39.15;;
40659;SDS011;26753;45.544;9.232;2022-10-16T02:32:33;60.80;;;37.22;;
40659;SDS011;26753;45.544;9.232;2022-10-16T02:35:01;62.40;;;40.15;;
40659;SDS011;26753;45.544;9.232;2022-10-16T02:37:28;57.55;;;36.40;;
40659;SDS011;26753;45.544;9.232;2022-10-16T02:39:56;58.45;;;35.83;;
40659;SDS011;26753;45.544;9.232;2022-10-16T02:42:27;54.78;;;34.65;;
40659;SDS011;26753;45.544;9.232;2022-10-16T02:45:00;60.63;;;36.40;;
40659;SDS011;26753;45.544;9.232;2022-10-16T02:47:25;62.72;;;38.60;;
40659;SDS011;26753;45.544;9.232;2022-10-16T02:49:51;62.42;;;38.42;;
40659;SDS011;26753;45.544;9.232;2022-10-16T02:52:17;58.30;;;37.53;;
40659;SDS011;26753;45.544;9.232;2022-10-16T02:54:43;54.05;;;35.08;;
40659;SDS011;26753;45.544;9.232;2022-10-16T02:57:08;63.90;;;38.03;;
40659;SDS011;26753;45.544;9.232;2022-10-16T02:59:34;60.95;;;37.22;;
40659;SDS011;26753;45.544;9.232;2022-10-16T03:02:00;59.95;;;36.83;;
40659;SDS011;26753;45.544;9.232;2022-10-16T03:04:25;60.70;;;35.95;;
40659;SDS011;26753;45.544;9.232;2022-10-16T03:06:51;57.35;;;37.58;;
40659;SDS011;26753;45.544;9.232;2022-10-16T03:09:17;55.70;;;35.58;;
40659;SDS011;26753;45.544;9.232;2022-10-16T03:11:45;56.90;;;34.83;;
40659;SDS011;26753;45.544;9.232;2022-10-16T03:14:11;54.53;;;35.45;;
40659;SDS011;26753;45.544;9.232;2022-10-16T03:16:38;54.50;;;34.80;;
40659;SDS011;26753;45.544;9.232;2022-10-16T03:19:03;54.47;;;34.13;;
40659;SDS011;26753;45.544;9.232;2022-10-16T03:21:29;50.55;;;33.38;;
40659;SDS011;26753;45.544;9.232;2022-10-16T03:23:55;51.17;;;34.10;;
40659;SDS011;26753;45.544;9.232;2022-10-16T03:26:21;54.78;;;34.78;;
40659;SDS011;26753;45.544;9.232;2022-10-16T03:28:46;55.55;;;36.15;;
40659;SDS011;26753;45.544;9.232;2022-10-16T03:31:12;57.10;;;35.55;;
40659;SDS011;26753;45.544;9.232;2022-10-16T03:33:39;59.50;;;35.83;;
40659;SDS011;26753;45.544;9.232;2022-10-16T03:36:05;56.50;;;36.45;;
40659;SDS011;26753;45.544;9.232;2022-10-16T03:38:31;60.60;;;37.08;;
40659;SDS011;26753;45.544;9.232;2022-10-16T03:40:57;56.83;;;35.72;;
40659;SDS011;26753;45.544;9.232;2022-10-16T03:43:23;57.40;;;36.38;;
40659;SDS011;26753;45.544;9.232;2022-10-16T03:45:51;55.17;;;35.03;;
40659;SDS011;26753;45.544;9.232;2022-10-16T03:48:17;55.92;;;34.70;;
40659;SDS011;26753;45.544;9.232;2022-10-16T03:50:43;53.78;;;35.70;;
40659;SDS011;26753;45.544;9.232;2022-10-16T03:53:09;54.20;;;35.13;;
40659;SDS011;26753;45.544;9.232;2022-10-16T03:55:35;53.88;;;34.92;;
40659;SDS011;26753;45.544;9.232;2022-10-16T03:58:01;56.40;;;34.58;;
40659;SDS011;26753;45.544;9.232;2022-10-16T04:00:27;52.05;;;33.85;;
40659;SDS011;26753;45.544;9.232;2022-10-16T04:02:53;53.80;;;33.60;;
40659;SDS011;26753;45.544;9.232;2022-10-16T04:05:18;50.25;;;33.85;;
40659;SDS011;26753;45.544;9.232;2022-10-16T04:07:44;49.38;;;32.53;;
40659;SDS011;26753;45.544;9.232;2022-10-16T04:10:10;49.38;;;32.55;;
40659;SDS011;26753;45.544;9.232;2022-10-16T04:12:35;50.35;;;32.00;;
40659;SDS011;26753;45.544;9.232;2022-10-16T04:15:01;48.38;;;33.00;;
40659;SDS011;26753;45.544;9.232;2022-10-16T04:17:27;50.55;;;31.50;;
40659;SDS011;26753;45.544;9.232;2022-10-16T04:19:53;46.70;;;30.75;;
40659;SDS011;26753;45.544;9.232;2022-10-16T04:22:21;47.95;;;31.25;;
40659;SDS011;26753;45.544;9.232;2022-10-16T04:24:47;48.17;;;31.30;;
40659;SDS011;26753;45.544;9.232;2022-10-16T04:27:12;49.40;;;30.48;;
40659;SDS011;26753;45.544;9.232;2022-10-16T04:29:38;47.85;;;30.27;;
40659;SDS011;26753;45.544;9.232;2022-10-16T04:32:04;44.97;;;30.88;;
40659;SDS011;26753;45.544;9.232;2022-10-16T04:34:30;48.45;;;31.45;;
40659;SDS011;26753;45.544;9.232;2022-10-16T04:36:55;43.88;;;29.90;;
40659;SDS011;26753;45.544;9.232;2022-10-16T04:39:21;46.75;;;29.88;;
40659;SDS011;26753;45.544;9.232;2022-10-16T04:41:47;42.50;;;29.00;;
40659;SDS011;26753;45.544;9.232;2022-10-16T04:44:12;48.78;;;29.20;;
40659;SDS011;26753;45.544;9.232;2022-10-16T04:46:38;43.70;;;29.98;;
40659;SDS011;26753;45.544;9.232;2022-10-16T04:49:04;40.15;;;28.50;;
40659;SDS011;26753;45.544;9.232;2022-10-16T04:51:29;41.33;;;28.33;;
40659;SDS011;26753;45.544;9.232;2022-10-16T04:53:55;42.50;;;28.60;;
40659;SDS011;26753;45.544;9.232;2022-10-16T04:56:21;42.92;;;28.17;;
40659;SDS011;26753;45.544;9.232;2022-10-16T04:58:47;45.55;;;28.85;;
40659;SDS011;26753;45.544;9.232;2022-10-16T05:01:12;41.25;;;28.00;;
40659;SDS011;26753;45.544;9.232;2022-10-16T05:03:38;43.22;;;28.52;;
40659;SDS011;26753;45.544;9.232;2022-10-16T05:06:05;44.00;;;28.42;;
40659;SDS011;26753;45.544;9.232;2022-10-16T05:08:31;39.53;;;27.38;;
40659;SDS011;26753;45.544;9.232;2022-10-16T05:10:57;42.05;;;27.10;;
40659;SDS011;26753;45.544;9.232;2022-10-16T05:13:23;39.67;;;26.77;;
40659;SDS011;26753;45.544;9.232;2022-10-16T05:15:49;38.13;;;25.95;;
40659;SDS011;26753;45.544;9.232;2022-10-16T05:18:15;36.47;;;24.52;;
40659;SDS011;26753;45.544;9.232;2022-10-16T05:20:41;34.40;;;24.50;;
40659;SDS011;26753;45.544;9.232;2022-10-16T05:23:08;34.53;;;24.27;;
40659;SDS011;26753;45.544;9.232;2022-10-16T05:25:35;37.53;;;26.02;;
40659;SDS011;26753;45.544;9.232;2022-10-16T05:28:01;36.47;;;25.13;;
40659;SDS011;26753;45.544;9.232;2022-10-16T05:30:28;40.92;;;26.38;;
40659;SDS011;26753;45.544;9.232;2022-10-16T05:32:54;37.45;;;25.52;;
40659;SDS011;26753;45.544;9.232;2022-10-16T05:35:20;42.75;;;25.60;;
40659;SDS011;26753;45.544;9.232;2022-10-16T05:37:46;38.25;;;26.05;;
40659;SDS011;26753;45.544;9.232;2022-10-16T05:40:12;35.22;;;25.58;;
40659;SDS011;26753;45.544;9.232;2022-10-16T05:42:38;38.25;;;24.60;;
40659;SDS011;26753;45.544;9.232;2022-10-16T05:45:05;37.65;;;25.48;;
40659;SDS011;26753;45.544;9.232;2022-10-16T05:47:31;37.60;;;25.42;;
40659;SDS011;26753;45.544;9.232;2022-10-16T05:49:57;36.70;;;25.35;;
40659;SDS011;26753;45.544;9.232;2022-10-16T05:52:29;36.20;;;24.00;;
40659;SDS011;26753;45.544;9.232;2022-10-16T05:55:04;39.30;;;25.10;;
40659;SDS011;26753;45.544;9.232;2022-10-16T05:57:33;36.38;;;24.80;;
40659;SDS011;26753;45.544;9.232;2022-10-16T05:59:59;35.55;;;25.63;;
40659;SDS011;26753;45.544;9.232;2022-10-16T06:02:25;38.63;;;24.77;;
40659;SDS011;26753;45.544;9.232;2022-10-16T06:04:51;36.13;;;24.70;;
40659;SDS011;26753;45.544;9.232;2022-10-16T06:07:20;36.97;;;25.02;;
40659;SDS011;26753;45.544;9.232;2022-10-16T06:09:50;36.60;;;25.77;;
40659;SDS011;26753;45.544;9.232;2022-10-16T06:12:17;39.00;;;25.35;;
40659;SDS011;26753;45.544;9.232;2022-10-16T06:14:44;38.65;;;25.05;;
40659;SDS011;26753;45.544;9.232;2022-10-16T06:17:13;42.95;;;25.70;;
40659;SDS011;26753;45.544;9.232;2022-10-16T06:19:40;37.55;;;24.67;;
40659;SDS011;26753;45.544;9.232;2022-10-16T06:22:06;39.35;;;24.40;;
40659;SDS011;26753;45.544;9.232;2022-10-16T06:24:37;37.25;;;25.75;;
40659;SDS011;26753;45.544;9.232;2022-10-16T06:30:00;37.17;;;25.65;;
40659;SDS011;26753;45.544;9.232;2022-10-16T06:32:27;37.72;;;24.95;;
40659;SDS011;26753;45.544;9.232;2022-10-16T06:34:56;37.50;;;24.15;;
40659;SDS011;26753;45.544;9.232;2022-10-16T06:37:24;37.28;;;24.70;;
40659;SDS011;26753;45.544;9.232;2022-10-16T06:39:50;39.47;;;25.85;;
40659;SDS011;26753;45.544;9.232;2022-10-16T06:42:19;41.53;;;26.20;;
40659;SDS011;26753;45.544;9.232;2022-10-16T06:44:45;41.58;;;26.45;;
40659;SDS011;26753;45.544;9.232;2022-10-16T06:54:30;39.70;;;26.15;;
40659;SDS011;26753;45.544;9.232;2022-10-16T07:00:11;36.63;;;24.70;;
40659;SDS011;26753;45.544;9.232;2022-10-16T07:03:24;37.72;;;24.88;;
40659;SDS011;26753;45.544;9.232;2022-10-16T07:15:48;44.22;;;26.60;;
40659;SDS011;26753;45.544;9.232;2022-10-16T07:25:08;41.77;;;25.80;;
40659;SDS011;26753;45.544;9.232;2022-10-16T07:28:09;47.00;;;27.75;;
40659;SDS011;26753;45.544;9.232;2022-10-16T07:30:44;45.90;;;28.70;;
40659;SDS011;26753;45.544;9.232;2022-10-16T07:33:43;42.85;;;27.33;;
40659;SDS011;26753;45.544;9.232;2022-10-16T07:36:13;44.58;;;28.42;;
40659;SDS011;26753;45.544;9.232;2022-10-16T07:38:48;49.53;;;29.80;;
40659;SDS011;26753;45.544;9.232;2022-10-16T07:41:19;45.20;;;29.65;;
40659;SDS011;26753;45.544;9.232;2022-10-16T07:43:48;46.88;;;29.30;;
40659;SDS011;26753;45.544;9.232;2022-10-16T07:46:37;48.28;;;29.27;;
40659;SDS011;26753;45.544;9.232;2022-10-16T07:49:05;44.83;;;28.95;;
40659;SDS011;26753;45.544;9.232;2022-10-16T07:51:31;46.17;;;29.13;;
40659;SDS011;26753;45.544;9.232;2022-10-16T07:54:07;43.33;;;27.75;;
40659;SDS011;26753;45.544;9.232;2022-10-16T07:56:34;41.15;;;27.40;;
40659;SDS011;26753;45.544;9.232;2022-10-16T07:59:00;43.88;;;28.42;;
40659;SDS011;26753;45.544;9.232;2022-10-16T08:01:46;43.72;;;28.05;;
40659;SDS011;26753;45.544;9.232;2022-10-16T08:04:14;46.25;;;29.73;;
40659;SDS011;26753;45.544;9.232;2022-10-16T08:06:40;44.20;;;27.25;;
40659;SDS011;26753;45.544;9.232;2022-10-16T08:09:06;52.17;;;26.73;;
40659;SDS011;26753;45.544;9.232;2022-10-16T08:11:36;42.22;;;27.80;;
40659;SDS011;26753;45.544;9.232;2022-10-16T08:14:02;45.42;;;29.13;;
40659;SDS011;26753;45.544;9.232;2022-10-16T08:16:27;43.20;;;28.23;;
40659;SDS011;26753;45.544;9.232;2022-10-16T08:18:53;41.70;;;26.30;;
40659;SDS011;26753;45.544;9.232;2022-10-16T08:21:22;37.45;;;24.90;;
40659;SDS011;26753;45.544;9.232;2022-10-16T08:23:48;37.83;;;24.88;;
40659;SDS011;26753;45.544;9.232;2022-10-16T08:26:15;39.97;;;25.00;;
40659;SDS011;26753;45.544;9.232;2022-10-16T08:28:41;35.38;;;22.98;;
40659;SDS011;26753;45.544;9.232;2022-10-16T08:33:41;33.72;;;23.27;;
40659;SDS011;26753;45.544;9.232;2022-10-16T08:36:12;37.47;;;23.80;;
40659;SDS011;26753;45.544;9.232;2022-10-16T08:38:39;32.33;;;22.90;;
40659;SDS011;26753;45.544;9.232;2022-10-16T08:46:39;34.83;;;22.98;;
40659;SDS011;26753;45.544;9.232;2022-10-16T08:49:11;31.00;;;21.42;;
40659;SDS011;26753;45.544;9.232;2022-10-16T08:51:38;38.00;;;23.85;;
40659;SDS011;26753;45.544;9.232;2022-10-16T08:54:06;38.95;;;24.70;;
40659;SDS011;26753;45.544;9.232;2022-10-16T08:56:53;36.28;;;24.77;;
40659;SDS011;26753;45.544;9.232;2022-10-16T08:59:20;37.72;;;25.27;;
40659;SDS011;26753;45.544;9.232;2022-10-16T09:01:47;39.75;;;25.80;;
40659;SDS011;26753;45.544;9.232;2022-10-16T09:04:27;39.85;;;26.00;;
40659;SDS011;26753;45.544;9.232;2022-10-16T09:15:01;62.03;;;37.27;;
40659;SDS011;26753;45.544;9.232;2022-10-16T09:18:14;49.75;;;30.98;;
40659;SDS011;26753;45.544;9.232;2022-10-16T09:21:19;49.00;;;29.63;;
40659;SDS011;26753;45.544;9.232;2022-10-16T09:23:49;47.33;;;29.00;;
40659;SDS011;26753;45.544;9.232;2022-10-16T09:26:15;51.75;;;29.88;;
40659;SDS011;26753;45.544;9.232;2022-10-16T09:28:43;52.63;;;31.60;;
40659;SDS011;26753;45.544;9.232;2022-10-16T09:31:30;53.53;;;32.40;;
40659;SDS011;26753;45.544;9.232;2022-10-16T09:33:57;53.63;;;31.88;;
40659;SDS011;26753;45.544;9.232;2022-10-16T09:36:25;57.60;;;33.08;;
40659;SDS011;26753;45.544;9.232;2022-10-16T09:39:06;61.90;;;35.63;;
40659;SDS011;26753;45.544;9.232;2022-10-16T09:41:41;62.88;;;35.15;;
40659;SDS011;26753;45.544;9.232;2022-10-16T09:44:21;60.30;;;36.00;;
40659;SDS011;26753;45.544;9.232;2022-10-16T09:47:03;64.63;;;34.72;;
40659;SDS011;26753;45.544;9.232;2022-10-16T09:49:32;62.25;;;35.83;;
40659;SDS011;26753;45.544;9.232;2022-10-16T09:52:04;53.25;;;34.83;;
40659;SDS011;26753;45.544;9.232;2022-10-16T09:54:30;62.35;;;36.13;;
40659;SDS011;26753;45.544;9.232;2022-10-16T09:57:06;59.70;;;34.90;;
40659;SDS011;26753;45.544;9.232;2022-10-16T09:59:32;62.55;;;37.40;;
40659;SDS011;26753;45.544;9.232;2022-10-16T10:02:01;65.25;;;38.28;;
40659;SDS011;26753;45.544;9.232;2022-10-16T10:04:37;63.53;;;38.55;;
40659;SDS011;26753;45.544;9.232;2022-10-16T10:07:06;68.63;;;37.47;;
40659;SDS011;26753;45.544;9.232;2022-10-16T10:09:43;65.30;;;37.58;;
40659;SDS011;26753;45.544;9.232;2022-10-16T10:12:43;68.72;;;38.08;;
40659;SDS011;26753;45.544;9.232;2022-10-16T10:15:12;64.45;;;37.92;;
40659;SDS011;26753;45.544;9.232;2022-10-16T10:17:45;66.55;;;37.88;;
40659;SDS011;26753;45.544;9.232;2022-10-16T10:22:52;63.95;;;36.85;;
40659;SDS011;26753;45.544;9.232;2022-10-16T11:01:24;63.67;;;38.25;;
40659;SDS011;26753;45.544;9.232;2022-10-16T11:07:02;70.97;;;39.78;;
40659;SDS011;26753;45.544;9.232;2022-10-16T11:09:45;70.80;;;39.50;;
40659;SDS011;26753;45.544;9.232;2022-10-16T11:12:16;67.97;;;40.63;;
40659;SDS011;26753;45.544;9.232;2022-10-16T11:17:34;70.30;;;40.70;;
40659;SDS011;26753;45.544;9.232;2022-10-16T11:20:18;67.70;;;41.00;;
40659;SDS011;26753;45.544;9.232;2022-10-16T11:22:50;74.57;;;40.72;;
40659;SDS011;26753;45.544;9.232;2022-10-16T11:35:45;70.00;;;40.67;;
40659;SDS011;26753;45.544;9.232;2022-10-16T11:38:29;69.50;;;41.63;;
40659;SDS011;26753;45.544;9.232;2022-10-16T11:41:10;66.85;;;40.47;;
40659;SDS011;26753;45.544;9.232;2022-10-16T11:43:39;71.60;;;41.58;;
40659;SDS011;26753;45.544;9.232;2022-10-16T11:46:10;65.25;;;39.17;;
40659;SDS011;26753;45.544;9.232;2022-10-16T11:54:04;68.20;;;40.20;;
40659;SDS011;26753;45.544;9.232;2022-10-16T11:56:47;69.43;;;39.72;;
40659;SDS011;26753;45.544;9.232;2022-10-16T11:59:23;73.95;;;41.08;;
40659;SDS011;26753;45.544;9.232;2022-10-16T12:01:52;71.30;;;40.53;;
40659;SDS011;26753;45.544;9.232;2022-10-16T12:07:11;63.08;;;37.60;;
40659;SDS011;26753;45.544;9.232;2022-10-16T12:09:42;59.38;;;37.15;;
40659;SDS011;26753;45.544;9.232;2022-10-16T12:12:27;63.42;;;38.45;;
40659;SDS011;26753;45.544;9.232;2022-10-16T12:17:49;54.65;;;35.92;;
40659;SDS011;26753;45.544;9.232;2022-10-16T12:22:57;57.58;;;35.65;;
40659;SDS011;26753;45.544;9.232;2022-10-16T12:25:31;58.53;;;35.13;;
40659;SDS011;26753;45.544;9.232;2022-10-16T12:28:15;59.15;;;37.90;;
40659;SDS011;26753;45.544;9.232;2022-10-16T12:30:55;49.58;;;32.30;;
40659;SDS011;26753;45.544;9.232;2022-10-16T12:33:24;52.85;;;34.30;;
40659;SDS011;26753;45.544;9.232;2022-10-16T12:35:55;60.47;;;37.13;;
40659;SDS011;26753;45.544;9.232;2022-10-16T12:43:37;55.30;;;34.95;;
40659;SDS011;26753;45.544;9.232;2022-10-16T12:46:48;48.65;;;34.50;;
40659;SDS011;26753;45.544;9.232;2022-10-16T12:57:03;46.35;;;32.38;;
40659;SDS011;26753;45.544;9.232;2022-10-16T13:00:01;47.90;;;33.33;;
40659;SDS011;26753;45.544;9.232;2022-10-16T13:28:01;36.20;;;27.40;;
40659;SDS011;26753;45.544;9.232;2022-10-16T13:30:37;39.38;;;27.73;;
40659;SDS011;26753;45.544;9.232;2022-10-16T13:33:06;40.08;;;29.65;;
40659;SDS011;26753;45.544;9.232;2022-10-16T13:35:46;42.60;;;30.15;;
40659;SDS011;26753;45.544;9.232;2022-10-16T13:38:17;41.80;;;31.30;;
40659;SDS011;26753;45.544;9.232;2022-10-16T13:40:53;43.90;;;32.22;;
40659;SDS011;26753;45.544;9.232;2022-10-16T13:46:06;47.17;;;33.63;;
40659;SDS011;26753;45.544;9.232;2022-10-16T13:49:31;51.13;;;34.97;;
40659;SDS011;26753;45.544;9.232;2022-10-16T13:51:53;49.10;;;34.35;;
40659;SDS011;26753;45.544;9.232;2022-10-16T13:54:24;47.15;;;33.13;;
40659;SDS011;26753;45.544;9.232;2022-10-16T13:56:50;47.17;;;33.30;;
40659;SDS011;26753;45.544;9.232;2022-10-16T13:59:26;50.13;;;34.25;;
40659;SDS011;26753;45.544;9.232;2022-10-16T14:01:58;49.55;;;33.70;;
40659;SDS011;26753;45.544;9.232;2022-10-16T14:04:30;53.05;;;35.55;;
40659;SDS011;26753;45.544;9.232;2022-10-16T14:06:58;54.88;;;35.70;;
40659;SDS011;26753;45.544;9.232;2022-10-16T14:09:24;53.35;;;35.05;;
40659;SDS011;26753;45.544;9.232;2022-10-16T14:11:56;49.53;;;34.80;;
40659;SDS011;26753;45.544;9.232;2022-10-16T14:14:27;52.58;;;33.58;;
40659;SDS011;26753;45.544;9.232;2022-10-16T14:19:46;45.35;;;32.33;;
40659;SDS011;26753;45.544;9.232;2022-10-16T14:22:28;50.67;;;33.15;;
40659;SDS011;26753;45.544;9.232;2022-10-16T14:24:58;49.97;;;33.80;;
40659;SDS011;26753;45.544;9.232;2022-10-16T14:27:32;44.40;;;32.63;;
40659;SDS011;26753;45.544;9.232;2022-10-16T14:30:08;45.72;;;32.63;;
40659;SDS011;26753;45.544;9.232;2022-10-16T14:32:42;48.38;;;31.10;;
40659;SDS011;26753;45.544;9.232;2022-10-16T14:35:31;45.65;;;31.58;;
40659;SDS011;26753;45.544;9.232;2022-10-16T14:37:59;45.38;;;32.70;;
40659;SDS011;26753;45.544;9.232;2022-10-16T14:40:27;43.30;;;31.10;;
40659;SDS011;26753;45.544;9.232;2022-10-16T14:42:58;43.47;;;31.73;;
40659;SDS011;26753;45.544;9.232;2022-10-16T14:45:27;43.67;;;30.33;;
40659;SDS011;26753;45.544;9.232;2022-10-16T14:47:56;41.78;;;29.30;;
40659;SDS011;26753;45.544;9.232;2022-10-16T14:50:24;45.40;;;31.48;;
40659;SDS011;26753;45.544;9.232;2022-10-16T14:52:50;45.78;;;31.40;;
40659;SDS011;26753;45.544;9.232;2022-10-16T14:55:16;45.47;;;31.33;;
40659;SDS011;26753;45.544;9.232;2022-10-16T14:57:46;46.70;;;32.72;;
40659;SDS011;26753;45.544;9.232;2022-10-16T15:00:30;46.83;;;31.70;;
40659;SDS011;26753;45.544;9.232;2022-10-16T15:02:56;44.75;;;30.83;;
40659;SDS011;26753;45.544;9.232;2022-10-16T15:05:25;47.97;;;33.50;;
40659;SDS011;26753;45.544;9.232;2022-10-16T15:07:53;47.13;;;32.58;;
40659;SDS011;26753;45.544;9.232;2022-10-16T15:10:20;46.65;;;31.40;;
40659;SDS011;26753;45.544;9.232;2022-10-16T15:12:47;48.92;;;32.90;;
40659;SDS011;26753;45.544;9.232;2022-10-16T15:17:49;44.95;;;27.83;;
40659;SDS011;26753;45.544;9.232;2022-10-16T15:20:17;54.42;;;38.85;;
40659;SDS011;26753;45.544;9.232;2022-10-16T15:22:44;46.60;;;33.75;;
40659;SDS011;26753;45.544;9.232;2022-10-16T15:28:07;56.28;;;38.92;;
40659;SDS011;26753;45.544;9.232;2022-10-16T15:30:33;46.30;;;29.95;;
40659;SDS011;26753;45.544;9.232;2022-10-16T15:33:00;46.20;;;31.48;;
40659;SDS011;26753;45.544;9.232;2022-10-16T15:35:27;47.40;;;30.75;;
40659;SDS011;26753;45.544;9.232;2022-10-16T15:37:52;48.85;;;33.42;;
40659;SDS011;26753;45.544;9.232;2022-10-16T15:40:18;48.47;;;32.53;;
40659;SDS011;26753;45.544;9.232;2022-10-16T15:42:45;44.70;;;30.85;;
40659;SDS011;26753;45.544;9.232;2022-10-16T15:45:11;46.97;;;29.50;;
40659;SDS011;26753;45.544;9.232;2022-10-16T15:47:38;46.50;;;30.85;;
40659;SDS011;26753;45.544;9.232;2022-10-16T15:50:06;43.53;;;30.67;;
40659;SDS011;26753;45.544;9.232;2022-10-16T15:52:32;44.58;;;30.40;;
40659;SDS011;26753;45.544;9.232;2022-10-16T15:54:58;44.95;;;30.35;;
40659;SDS011;26753;45.544;9.232;2022-10-16T15:57:25;43.03;;;28.67;;
40659;SDS011;26753;45.544;9.232;2022-10-16T15:59:56;44.53;;;29.60;;
40659;SDS011;26753;45.544;9.232;2022-10-16T16:02:22;47.33;;;29.33;;
40659;SDS011;26753;45.544;9.232;2022-10-16T16:04:48;45.38;;;28.23;;
40659;SDS011;26753;45.544;9.232;2022-10-16T16:07:13;38.55;;;27.40;;
40659;SDS011;26753;45.544;9.232;2022-10-16T16:09:39;42.05;;;27.73;;
40659;SDS011;26753;45.544;9.232;2022-10-16T16:12:05;48.15;;;27.48;;
40659;SDS011;26753;45.544;9.232;2022-10-16T16:14:31;39.83;;;25.13;;
40659;SDS011;26753;45.544;9.232;2022-10-16T16:17:13;45.58;;;29.33;;
40659;SDS011;26753;45.544;9.232;2022-10-16T16:19:39;51.90;;;34.08;;
40659;SDS011;26753;45.544;9.232;2022-10-16T16:22:05;62.63;;;40.35;;
40659;SDS011;26753;45.544;9.232;2022-10-16T16:24:34;74.43;;;48.10;;
40659;SDS011;26753;45.544;9.232;2022-10-16T16:27:00;58.05;;;38.55;;
40659;SDS011;26753;45.544;9.232;2022-10-16T16:29:25;60.35;;;37.63;;
40659;SDS011;26753;45.544;9.232;2022-10-16T16:31:51;56.28;;;34.83;;
40659;SDS011;26753;45.544;9.232;2022-10-16T16:34:22;56.35;;;35.42;;
40659;SDS011;26753;45.544;9.232;2022-10-16T16:36:49;51.80;;;34.65;;
40659;SDS011;26753;45.544;9.232;2022-10-16T16:39:15;63.13;;;38.38;;
40659;SDS011;26753;45.544;9.232;2022-10-16T16:41:42;57.13;;;36.75;;
40659;SDS011;26753;45.544;9.232;2022-10-16T16:44:08;58.22;;;36.65;;
40659;SDS011;26753;45.544;9.232;2022-10-16T16:46:36;56.33;;;36.72;;
40659;SDS011;26753;45.544;9.232;2022-10-16T16:49:02;60.90;;;38.90;;
40659;SDS011;26753;45.544;9.232;2022-10-16T16:51:32;64.32;;;37.55;;
40659;SDS011;26753;45.544;9.232;2022-10-16T16:53:58;60.47;;;37.85;;
40659;SDS011;26753;45.544;9.232;2022-10-16T16:56:25;58.42;;;38.05;;
40659;SDS011;26753;45.544;9.232;2022-10-16T16:58:52;62.03;;;37.95;;
40659;SDS011;26753;45.544;9.232;2022-10-16T17:01:20;60.35;;;37.63;;
40659;SDS011;26753;45.544;9.232;2022-10-16T17:03:49;60.30;;;37.78;;
40659;SDS011;26753;45.544;9.232;2022-10-16T17:06:17;65.05;;;37.45;;
40659;SDS011;26753;45.544;9.232;2022-10-16T17:08:44;60.65;;;37.35;;
40659;SDS011;26753;45.544;9.232;2022-10-16T17:11:13;61.50;;;36.78;;
40659;SDS011;26753;45.544;9.232;2022-10-16T17:13:40;61.35;;;38.10;;
40659;SDS011;26753;45.544;9.232;2022-10-16T17:16:07;56.63;;;37.33;;
40659;SDS011;26753;45.544;9.232;2022-10-16T17:18:34;56.90;;;36.75;;
40659;SDS011;26753;45.544;9.232;2022-10-16T17:21:04;60.17;;;37.15;;
40659;SDS011;26753;45.544;9.232;2022-10-16T17:23:31;61.25;;;37.53;;
40659;SDS011;26753;45.544;9.232;2022-10-16T17:26:09;63.67;;;38.28;;
40659;SDS011;26753;45.544;9.232;2022-10-16T17:31:42;56.45;;;36.13;;
40659;SDS011;26753;45.544;9.232;2022-10-16T17:34:08;58.15;;;38.80;;
40659;SDS011;26753;45.544;9.232;2022-10-16T17:36:36;66.00;;;38.38;;